Ride Results

BEER - Upper Natone (12-05-2017)
Ride distance: 80.0 km

Outcomes - BEER - Upper Natone (12-05-2017)
Division No. of Entries Retired / DNE Completed Withdrawn Ineligible V/O Percentage Completed
HW 6 - 5 - - 1 83.33%
MW 18 - 14 1 - 3 77.78%
LW 12 - 10 - - 2 83.33%
JN 8 - 7 - - 1 87.50%
Totals 44 - 36 1 - 7 81.82%
Results - BEER - Upper Natone (12-05-2017)
No. Rider Horse Place Time Leg Speeds Total
Km/Hr
H/R bpm
Heavyweight
194 Robby Walsh Free Spirit Czar 1 (BC) 5:37:00 14.9, 13.5 14.24 36, 53, 55 (Avg:54)
156 David Anderson Jnr Deeka Park Bambino 2 7:16:00 13.0, 9.5 11.01 36, 43, 56 (Avg:49)
166 Craig Wilson Rebel Impact 3 7:17:00 11.4, 10.5 10.98 36, 47, 57 (Avg:52)
325 Ian Sims Quintally Spiderman 4 7:24:00 12.9, 9.2 10.81 41, 48, 52 (Avg:50)
254 Deb Wyllie Ace of Moravian 5 8:09:00 9.9, 9.6 9.82 36, 46, 50 (Avg:48)
185 Dale Press Dat Murphy Lame L1 (Rep) 0:00:00 16.4 - 55, 45, 45 (Avg:45)
Middleweight
179 Debbie Grull DVS Sunsilk 1 5:51:00 14.6, 12.8 13.68 37, 47, 57 (Avg:52)
276 Naomi Maxwell KP Samson 1 (BC) 5:51:00 14.6, 12.8 13.68 33, 39, 43 (Avg:41)
76 Karin Morris Follydown Mystify (au) 3 6:00:00 13.7, 12.9 13.33 38, 41, 49 (Avg:45)
114 Tara Nicklason Cruze GT 3 6:00:00 13.7, 12.9 13.33 40, 43, 57 (Avg:50)
o Noel Lockhart Ralvon Splendour 5 6:10:00 12.9, 12.9 12.97 28, 40, 47 (Avg:43)
101 Wendy Rand Shayelle Dixie 6 6:54:00 12.3, 10.9 11.59 30, 41, 55 (Avg:48)
69 Tracey Wyllie AT Dial Range Jilly 7 7:08:00 11.7, 10.7 11.21 34, 41, 46 (Avg:43)
300 Raelene Smith Splitters Creek Cypress 8 7:19:00 10.9, 10.9 10.93 33, 49, 51 (Avg:50)
182 Fran Jordan Diablo 9 7:20:00 11.1, 10.7 10.91 30, 41, 45 (Avg:43)
286 Yvonne Downes Ennovyar Deep Affection 10 7:24:00 11.4, 10.2 10.81 38, 45, 51 (Avg:48)
12 Anita Hutchins AT Dial Range Sam 11 7:58:00 9.7, 10.3 10.04 30, 42, 57 (Avg:49)
180 Nicole Ford El- Zarka 12 7:59:00 10.8, 9.3 10.02 44, 42, 51 (Avg:46)
4 Helen Bowkett Kintamani Silver Daquiri 13 8:29:00 9.8, 9.0 9.43 30, 36, 47 (Avg:41)
281 Indianna Humphries Oakley Park Titus 14 8:39:00 9.3, 9.1 9.25 28, 39, 46 (Avg:42)
77 Victoria Moreton-Straw The Hobbit Lame L2 0:00:00 12.9, 12.9 - 34, 46, 54 (Avg:50)
191 Lara Verdouw Awarran Park Shining Aura Heart Rate L2 0:00:00 13.5, 11.4 - 40, 54, 65 (Avg:59)
142 Shayne Williams Follydown Foxtrot Lame L2 0:00:00 12.3, 10.9 - 31, 43, 57 (Avg:50)
38 Frith Szigethy-Gyula Beer Street Lizzy B Withdrawn L1 0:00:00 - - 31, 46 (Avg:46)
Lightweight
125 Brooke Brown-Cordell Vandieman Saladin 1 (BC) 6:05:00 13.0, 13.2 13.15 53, 48, 52 (Avg:50)
312 Tanya Quarrell-Loone Alhambra Miscreant 2 7:08:00 11.7, 10.7 11.21 38, 46, 45 (Avg:45)
285 Amy Dawkins Hamdani Nik Ol'Ai 3 7:13:00 13.5, 9.3 11.09 30, 47, 54 (Avg:50)
100 Trish Smith Beaucheval Akhiran 4 7:14:00 11.4, 10.7 11.06 31, 46, 51 (Avg:48)
209 Grace Huxtable Kalody Park Kane 5 7:16:00 11.3, 10.7 11.01 36, 46, 53 (Avg:49)
253 Kelly Woodhouse Rivergum High Serenity 6 7:19:00 10.9, 10.9 10.93 35, 44, 45 (Avg:44)
115 Jenny Keygan Woodsong Kasanova 7 7:20:00 11.1, 10.7 10.91 29, 42, 50 (Avg:46)
90 Angela Hawks Indi 8 7:44:00 10.2, 10.4 10.34 41, 49, 55 (Avg:52)
70 Chels Royer AT Dial Range Bill 9 7:58:00 9.7, 10.3 10.04 41, 46, 52 (Avg:49)
248 Kristin Kay Malricia Madeleina 10 8:09:00 11.1, 8.7 9.82 32, 40, 42 (Avg:41)
79 Shannon Hill Magic Prediction Lame L2 0:00:00 14.9, 13.5 - 31, 48, 49 (Avg:48)
157 Lynette Walker Vandieman Ebony Lame P/R 0:00:00 - - 35, 32 (Avg:32)
Junior
113 Kirstie Lockhart Zane 1 (BC) 5:37:00 14.9, 13.5 14.24 31, 45, 38 (Avg:41)
295 Taylor Fuller AT Dial Range Schmook 2 7:08:00 11.7, 10.7 11.21 39, 46, 59 (Avg:52)
310 Brandon Foley Bob Oscar Bashir 3 7:13:00 13.5, 9.3 11.09 39, 50, 51 (Avg:50)
260 Laura Febey Rocky 4 7:16:00 10.4, 11.6 11.01 36, 43, 47 (Avg:45)
249 Corey Foley Delacados Desert Jewel 4 7:16:00 11.4, 10.5 11.01 45, 46, 50 (Avg:48)
127 Jaz Hutchins At Dial Range Tex 6 7:58:00 9.7, 10.3 10.04 43, 46, 54 (Avg:50)
308 Ella Carter Kadez 7 8:39:00 9.3, 9.1 9.25 38, 44, 52 (Avg:48)
284 Abbey Ayers Samosa Heart Rate L2 0:00:00 11.2, 10.8 - 36, 49, 65 (Avg:57)